sensor_id;sensor_type;location;lat;lon;timestamp;P1;durP1;ratioP1;P2;durP2;ratioP2
6193;SDS011;3130;41.564;23.280;2022-11-27T00:01:07;8.37;;;5.60;;
6193;SDS011;3130;41.564;23.280;2022-11-27T00:03:34;7.60;;;5.77;;
6193;SDS011;3130;41.564;23.280;2022-11-27T00:06:01;11.03;;;6.63;;
6193;SDS011;3130;41.564;23.280;2022-11-27T00:08:28;7.17;;;5.97;;
6193;SDS011;3130;41.564;23.280;2022-11-27T00:10:56;18.97;;;11.13;;
6193;SDS011;3130;41.564;23.280;2022-11-27T00:13:23;24.40;;;13.87;;
6193;SDS011;3130;41.564;23.280;2022-11-27T00:15:50;20.37;;;14.43;;
6193;SDS011;3130;41.564;23.280;2022-11-27T00:18:18;18.47;;;12.97;;
6193;SDS011;3130;41.564;23.280;2022-11-27T00:20:45;16.87;;;12.83;;
6193;SDS011;3130;41.564;23.280;2022-11-27T00:23:12;15.97;;;12.83;;
6193;SDS011;3130;41.564;23.280;2022-11-27T00:25:39;15.87;;;12.43;;
6193;SDS011;3130;41.564;23.280;2022-11-27T00:28:06;16.93;;;12.57;;
6193;SDS011;3130;41.564;23.280;2022-11-27T00:30:33;17.73;;;12.73;;
6193;SDS011;3130;41.564;23.280;2022-11-27T00:33:03;25.60;;;15.50;;
6193;SDS011;3130;41.564;23.280;2022-11-27T00:35:31;15.33;;;11.80;;
6193;SDS011;3130;41.564;23.280;2022-11-27T00:37:58;18.80;;;11.80;;
6193;SDS011;3130;41.564;23.280;2022-11-27T00:40:26;16.37;;;12.10;;
6193;SDS011;3130;41.564;23.280;2022-11-27T00:42:53;17.30;;;12.43;;
6193;SDS011;3130;41.564;23.280;2022-11-27T00:45:20;16.07;;;12.30;;
6193;SDS011;3130;41.564;23.280;2022-11-27T00:47:47;18.33;;;12.27;;
6193;SDS011;3130;41.564;23.280;2022-11-27T00:50:14;18.30;;;12.63;;
6193;SDS011;3130;41.564;23.280;2022-11-27T00:52:43;16.67;;;10.87;;
6193;SDS011;3130;41.564;23.280;2022-11-27T00:55:10;17.07;;;10.97;;
6193;SDS011;3130;41.564;23.280;2022-11-27T00:57:38;16.10;;;11.33;;
6193;SDS011;3130;41.564;23.280;2022-11-27T01:00:05;14.67;;;11.63;;
6193;SDS011;3130;41.564;23.280;2022-11-27T01:02:33;18.07;;;9.07;;
6193;SDS011;3130;41.564;23.280;2022-11-27T01:05:00;9.60;;;7.67;;
6193;SDS011;3130;41.564;23.280;2022-11-27T01:07:27;9.93;;;5.97;;
6193;SDS011;3130;41.564;23.280;2022-11-27T01:09:56;9.90;;;6.17;;
6193;SDS011;3130;41.564;23.280;2022-11-27T01:12:23;12.17;;;6.33;;
6193;SDS011;3130;41.564;23.280;2022-11-27T01:14:50;11.20;;;7.07;;
6193;SDS011;3130;41.564;23.280;2022-11-27T01:17:17;11.60;;;6.97;;
6193;SDS011;3130;41.564;23.280;2022-11-27T01:19:44;9.80;;;6.73;;
6193;SDS011;3130;41.564;23.280;2022-11-27T01:22:11;7.53;;;6.20;;
6193;SDS011;3130;41.564;23.280;2022-11-27T01:24:38;9.07;;;6.07;;
6193;SDS011;3130;41.564;23.280;2022-11-27T01:27:07;8.17;;;6.07;;
6193;SDS011;3130;41.564;23.280;2022-11-27T01:29:34;8.23;;;5.77;;
6193;SDS011;3130;41.564;23.280;2022-11-27T01:32:01;8.33;;;6.10;;
6193;SDS011;3130;41.564;23.280;2022-11-27T01:34:28;7.97;;;6.00;;
6193;SDS011;3130;41.564;23.280;2022-11-27T01:36:55;8.97;;;5.93;;
6193;SDS011;3130;41.564;23.280;2022-11-27T01:39:22;8.50;;;6.23;;
6193;SDS011;3130;41.564;23.280;2022-11-27T01:41:49;7.17;;;5.50;;
6193;SDS011;3130;41.564;23.280;2022-11-27T01:47:28;7.60;;;5.47;;
6193;SDS011;3130;41.564;23.280;2022-11-27T01:50:02;10.73;;;5.80;;
6193;SDS011;3130;41.564;23.280;2022-11-27T01:52:35;6.97;;;5.20;;
6193;SDS011;3130;41.564;23.280;2022-11-27T01:55:05;7.40;;;5.90;;
6193;SDS011;3130;41.564;23.280;2022-11-27T01:57:37;6.63;;;5.63;;
6193;SDS011;3130;41.564;23.280;2022-11-27T02:00:08;10.17;;;6.33;;
6193;SDS011;3130;41.564;23.280;2022-11-27T02:02:39;7.67;;;5.67;;
6193;SDS011;3130;41.564;23.280;2022-11-27T02:05:08;7.87;;;5.93;;
6193;SDS011;3130;41.564;23.280;2022-11-27T02:07:36;8.10;;;5.90;;
6193;SDS011;3130;41.564;23.280;2022-11-27T02:10:04;6.37;;;4.80;;
6193;SDS011;3130;41.564;23.280;2022-11-27T02:12:34;6.70;;;4.93;;
6193;SDS011;3130;41.564;23.280;2022-11-27T02:15:12;7.43;;;5.63;;
6193;SDS011;3130;41.564;23.280;2022-11-27T02:17:48;7.50;;;5.13;;
6193;SDS011;3130;41.564;23.280;2022-11-27T02:20:27;6.97;;;5.80;;
6193;SDS011;3130;41.564;23.280;2022-11-27T02:26:09;7.97;;;5.60;;
6193;SDS011;3130;41.564;23.280;2022-11-27T02:28:54;6.53;;;5.47;;
6193;SDS011;3130;41.564;23.280;2022-11-27T02:31:26;8.33;;;5.47;;
6193;SDS011;3130;41.564;23.280;2022-11-27T02:34:01;6.97;;;5.80;;
6193;SDS011;3130;41.564;23.280;2022-11-27T02:36:36;6.87;;;4.90;;
6193;SDS011;3130;41.564;23.280;2022-11-27T02:39:10;5.93;;;4.87;;
6193;SDS011;3130;41.564;23.280;2022-11-27T02:41:44;6.03;;;5.43;;
6193;SDS011;3130;41.564;23.280;2022-11-27T02:44:17;7.23;;;5.03;;
6193;SDS011;3130;41.564;23.280;2022-11-27T02:46:47;8.97;;;6.20;;
6193;SDS011;3130;41.564;23.280;2022-11-27T02:49:15;6.83;;;5.13;;
6193;SDS011;3130;41.564;23.280;2022-11-27T02:51:45;7.70;;;5.37;;
6193;SDS011;3130;41.564;23.280;2022-11-27T02:54:19;6.40;;;5.53;;
6193;SDS011;3130;41.564;23.280;2022-11-27T02:56:51;7.33;;;5.23;;
6193;SDS011;3130;41.564;23.280;2022-11-27T02:59:21;6.33;;;5.30;;
6193;SDS011;3130;41.564;23.280;2022-11-27T03:01:52;6.77;;;4.67;;
6193;SDS011;3130;41.564;23.280;2022-11-27T03:04:22;6.27;;;4.83;;
6193;SDS011;3130;41.564;23.280;2022-11-27T03:06:54;6.30;;;4.97;;
6193;SDS011;3130;41.564;23.280;2022-11-27T03:09:26;8.33;;;4.40;;
6193;SDS011;3130;41.564;23.280;2022-11-27T03:11:58;6.80;;;4.93;;
6193;SDS011;3130;41.564;23.280;2022-11-27T03:14:27;5.77;;;5.13;;
6193;SDS011;3130;41.564;23.280;2022-11-27T03:16:57;8.87;;;4.60;;
6193;SDS011;3130;41.564;23.280;2022-11-27T03:19:29;9.90;;;5.63;;
6193;SDS011;3130;41.564;23.280;2022-11-27T03:21:59;5.43;;;4.87;;
6193;SDS011;3130;41.564;23.280;2022-11-27T03:24:28;6.70;;;5.47;;
6193;SDS011;3130;41.564;23.280;2022-11-27T03:26:57;6.23;;;4.60;;
6193;SDS011;3130;41.564;23.280;2022-11-27T03:29:26;6.13;;;5.53;;
6193;SDS011;3130;41.564;23.280;2022-11-27T03:32:00;6.50;;;5.20;;
6193;SDS011;3130;41.564;23.280;2022-11-27T03:34:28;8.40;;;6.57;;
6193;SDS011;3130;41.564;23.280;2022-11-27T03:36:57;15.47;;;9.47;;
6193;SDS011;3130;41.564;23.280;2022-11-27T03:39:24;15.07;;;10.73;;
6193;SDS011;3130;41.564;23.280;2022-11-27T03:41:53;16.63;;;12.80;;
6193;SDS011;3130;41.564;23.280;2022-11-27T03:44:34;19.60;;;12.50;;
6193;SDS011;3130;41.564;23.280;2022-11-27T03:47:09;18.37;;;12.33;;
6193;SDS011;3130;41.564;23.280;2022-11-27T03:49:45;15.00;;;12.07;;
6193;SDS011;3130;41.564;23.280;2022-11-27T03:52:24;17.67;;;11.80;;
6193;SDS011;3130;41.564;23.280;2022-11-27T03:55:00;16.20;;;11.73;;
6193;SDS011;3130;41.564;23.280;2022-11-27T03:57:36;20.73;;;13.57;;
6193;SDS011;3130;41.564;23.280;2022-11-27T04:00:10;16.57;;;11.67;;
6193;SDS011;3130;41.564;23.280;2022-11-27T04:02:39;17.10;;;12.90;;
6193;SDS011;3130;41.564;23.280;2022-11-27T04:05:07;19.73;;;13.27;;
6193;SDS011;3130;41.564;23.280;2022-11-27T04:07:35;15.73;;;11.77;;
6193;SDS011;3130;41.564;23.280;2022-11-27T04:10:03;15.33;;;12.37;;
6193;SDS011;3130;41.564;23.280;2022-11-27T04:12:31;14.20;;;10.97;;
6193;SDS011;3130;41.564;23.280;2022-11-27T04:14:58;10.23;;;8.77;;
6193;SDS011;3130;41.564;23.280;2022-11-27T04:17:27;9.37;;;7.23;;
6193;SDS011;3130;41.564;23.280;2022-11-27T04:19:54;10.47;;;6.00;;
6193;SDS011;3130;41.564;23.280;2022-11-27T04:22:21;9.30;;;6.90;;
6193;SDS011;3130;41.564;23.280;2022-11-27T04:24:48;12.60;;;9.33;;
6193;SDS011;3130;41.564;23.280;2022-11-27T04:27:15;11.10;;;8.60;;
6193;SDS011;3130;41.564;23.280;2022-11-27T04:29:43;20.27;;;12.60;;
6193;SDS011;3130;41.564;23.280;2022-11-27T04:32:10;13.60;;;10.03;;
6193;SDS011;3130;41.564;23.280;2022-11-27T04:34:39;22.77;;;10.60;;
6193;SDS011;3130;41.564;23.280;2022-11-27T04:37:06;14.30;;;9.93;;
6193;SDS011;3130;41.564;23.280;2022-11-27T04:39:33;15.00;;;11.00;;
6193;SDS011;3130;41.564;23.280;2022-11-27T04:41:59;15.63;;;10.57;;
6193;SDS011;3130;41.564;23.280;2022-11-27T04:44:27;17.13;;;11.27;;
6193;SDS011;3130;41.564;23.280;2022-11-27T04:46:54;11.33;;;10.03;;
6193;SDS011;3130;41.564;23.280;2022-11-27T04:49:21;13.73;;;10.40;;
6193;SDS011;3130;41.564;23.280;2022-11-27T04:51:49;15.07;;;11.47;;
6193;SDS011;3130;41.564;23.280;2022-11-27T04:54:16;16.73;;;10.43;;
6193;SDS011;3130;41.564;23.280;2022-11-27T04:56:43;17.23;;;11.53;;
6193;SDS011;3130;41.564;23.280;2022-11-27T04:59:10;15.03;;;11.43;;
6193;SDS011;3130;41.564;23.280;2022-11-27T05:01:37;13.03;;;10.30;;
6193;SDS011;3130;41.564;23.280;2022-11-27T05:04:04;10.10;;;7.63;;
6193;SDS011;3130;41.564;23.280;2022-11-27T05:06:31;10.77;;;7.27;;
6193;SDS011;3130;41.564;23.280;2022-11-27T05:08:59;6.37;;;5.63;;
6193;SDS011;3130;41.564;23.280;2022-11-27T05:11:27;7.93;;;6.97;;
6193;SDS011;3130;41.564;23.280;2022-11-27T05:13:55;8.50;;;6.60;;
6193;SDS011;3130;41.564;23.280;2022-11-27T05:16:36;6.30;;;5.10;;
6193;SDS011;3130;41.564;23.280;2022-11-27T05:19:03;9.40;;;6.33;;
6193;SDS011;3130;41.564;23.280;2022-11-27T05:21:30;8.03;;;6.80;;
6193;SDS011;3130;41.564;23.280;2022-11-27T05:23:59;8.37;;;6.00;;
6193;SDS011;3130;41.564;23.280;2022-11-27T05:26:26;10.13;;;6.00;;
6193;SDS011;3130;41.564;23.280;2022-11-27T05:28:53;10.47;;;6.47;;
6193;SDS011;3130;41.564;23.280;2022-11-27T05:31:20;5.67;;;5.10;;
6193;SDS011;3130;41.564;23.280;2022-11-27T05:33:48;7.37;;;6.00;;
6193;SDS011;3130;41.564;23.280;2022-11-27T05:36:15;9.60;;;6.70;;
6193;SDS011;3130;41.564;23.280;2022-11-27T05:38:42;7.37;;;5.40;;
6193;SDS011;3130;41.564;23.280;2022-11-27T05:41:10;8.83;;;5.73;;
6193;SDS011;3130;41.564;23.280;2022-11-27T05:43:37;7.77;;;6.27;;
6193;SDS011;3130;41.564;23.280;2022-11-27T05:46:06;6.93;;;6.00;;
6193;SDS011;3130;41.564;23.280;2022-11-27T05:48:34;8.77;;;7.23;;
6193;SDS011;3130;41.564;23.280;2022-11-27T05:51:02;23.17;;;12.93;;
6193;SDS011;3130;41.564;23.280;2022-11-27T05:53:30;22.40;;;15.00;;
6193;SDS011;3130;41.564;23.280;2022-11-27T05:55:59;20.07;;;16.13;;
6193;SDS011;3130;41.564;23.280;2022-11-27T05:58:29;25.70;;;17.07;;
6193;SDS011;3130;41.564;23.280;2022-11-27T06:00:56;19.13;;;13.93;;
6193;SDS011;3130;41.564;23.280;2022-11-27T06:03:24;17.97;;;12.73;;
6193;SDS011;3130;41.564;23.280;2022-11-27T06:05:51;22.23;;;15.60;;
6193;SDS011;3130;41.564;23.280;2022-11-27T06:08:19;22.53;;;15.50;;
6193;SDS011;3130;41.564;23.280;2022-11-27T06:10:46;20.00;;;13.47;;
6193;SDS011;3130;41.564;23.280;2022-11-27T06:13:14;19.67;;;12.60;;
6193;SDS011;3130;41.564;23.280;2022-11-27T06:15:43;19.43;;;12.27;;
6193;SDS011;3130;41.564;23.280;2022-11-27T06:18:10;23.90;;;12.50;;
6193;SDS011;3130;41.564;23.280;2022-11-27T06:20:37;19.17;;;12.40;;
6193;SDS011;3130;41.564;23.280;2022-11-27T06:23:05;21.17;;;12.50;;
6193;SDS011;3130;41.564;23.280;2022-11-27T06:25:32;24.10;;;15.17;;
6193;SDS011;3130;41.564;23.280;2022-11-27T06:27:59;20.87;;;15.47;;
6193;SDS011;3130;41.564;23.280;2022-11-27T06:30:26;30.23;;;18.37;;
6193;SDS011;3130;41.564;23.280;2022-11-27T06:32:54;27.63;;;19.33;;
6193;SDS011;3130;41.564;23.280;2022-11-27T06:35:21;34.27;;;19.30;;
6193;SDS011;3130;41.564;23.280;2022-11-27T06:37:48;56.03;;;29.93;;
6193;SDS011;3130;41.564;23.280;2022-11-27T06:40:16;37.00;;;24.07;;
6193;SDS011;3130;41.564;23.280;2022-11-27T06:42:43;27.20;;;16.13;;
6193;SDS011;3130;41.564;23.280;2022-11-27T06:45:10;27.90;;;18.97;;
6193;SDS011;3130;41.564;23.280;2022-11-27T06:47:38;33.93;;;19.97;;
6193;SDS011;3130;41.564;23.280;2022-11-27T06:50:07;28.17;;;19.20;;
6193;SDS011;3130;41.564;23.280;2022-11-27T06:52:34;28.60;;;18.60;;
6193;SDS011;3130;41.564;23.280;2022-11-27T06:55:01;27.90;;;18.50;;
6193;SDS011;3130;41.564;23.280;2022-11-27T06:57:28;31.37;;;22.63;;
6193;SDS011;3130;41.564;23.280;2022-11-27T06:59:55;27.83;;;21.83;;
6193;SDS011;3130;41.564;23.280;2022-11-27T07:02:22;23.83;;;16.63;;
6193;SDS011;3130;41.564;23.280;2022-11-27T07:04:49;27.63;;;16.87;;
6193;SDS011;3130;41.564;23.280;2022-11-27T07:07:18;21.20;;;15.73;;
6193;SDS011;3130;41.564;23.280;2022-11-27T07:09:45;22.70;;;18.03;;
6193;SDS011;3130;41.564;23.280;2022-11-27T07:12:12;34.47;;;23.83;;
6193;SDS011;3130;41.564;23.280;2022-11-27T07:14:40;28.50;;;19.23;;
6193;SDS011;3130;41.564;23.280;2022-11-27T07:17:07;22.37;;;15.87;;
6193;SDS011;3130;41.564;23.280;2022-11-27T07:19:34;23.70;;;15.97;;
6193;SDS011;3130;41.564;23.280;2022-11-27T07:22:01;22.53;;;16.40;;
6193;SDS011;3130;41.564;23.280;2022-11-27T07:24:29;27.43;;;17.93;;
6193;SDS011;3130;41.564;23.280;2022-11-27T07:26:56;25.30;;;18.40;;
6193;SDS011;3130;41.564;23.280;2022-11-27T07:29:24;28.20;;;16.00;;
6193;SDS011;3130;41.564;23.280;2022-11-27T07:31:51;20.83;;;14.97;;
6193;SDS011;3130;41.564;23.280;2022-11-27T07:34:18;25.07;;;16.40;;
6193;SDS011;3130;41.564;23.280;2022-11-27T07:36:45;29.40;;;18.53;;
6193;SDS011;3130;41.564;23.280;2022-11-27T07:39:12;29.43;;;17.93;;
6193;SDS011;3130;41.564;23.280;2022-11-27T07:41:40;24.40;;;15.67;;
6193;SDS011;3130;41.564;23.280;2022-11-27T07:44:08;24.53;;;16.93;;
6193;SDS011;3130;41.564;23.280;2022-11-27T07:46:35;27.73;;;18.47;;
6193;SDS011;3130;41.564;23.280;2022-11-27T07:49:02;24.63;;;18.17;;
6193;SDS011;3130;41.564;23.280;2022-11-27T07:51:29;26.23;;;17.70;;
6193;SDS011;3130;41.564;23.280;2022-11-27T07:53:57;21.77;;;16.27;;
6193;SDS011;3130;41.564;23.280;2022-11-27T07:56:25;25.33;;;17.50;;
6193;SDS011;3130;41.564;23.280;2022-11-27T07:58:54;23.73;;;17.43;;
6193;SDS011;3130;41.564;23.280;2022-11-27T08:01:22;29.87;;;18.80;;
6193;SDS011;3130;41.564;23.280;2022-11-27T08:03:49;26.10;;;19.10;;
6193;SDS011;3130;41.564;23.280;2022-11-27T08:06:17;30.07;;;21.57;;
6193;SDS011;3130;41.564;23.280;2022-11-27T08:08:45;35.30;;;18.33;;
6193;SDS011;3130;41.564;23.280;2022-11-27T08:11:14;28.80;;;19.17;;
6193;SDS011;3130;41.564;23.280;2022-11-27T08:13:43;26.10;;;19.27;;
6193;SDS011;3130;41.564;23.280;2022-11-27T08:16:11;27.20;;;16.83;;
6193;SDS011;3130;41.564;23.280;2022-11-27T08:18:38;23.00;;;15.27;;
6193;SDS011;3130;41.564;23.280;2022-11-27T08:21:05;26.00;;;16.13;;
6193;SDS011;3130;41.564;23.280;2022-11-27T08:23:32;22.03;;;13.93;;
6193;SDS011;3130;41.564;23.280;2022-11-27T08:26:01;22.17;;;15.33;;
6193;SDS011;3130;41.564;23.280;2022-11-27T08:28:30;18.50;;;13.00;;
6193;SDS011;3130;41.564;23.280;2022-11-27T08:30:58;21.43;;;15.43;;
6193;SDS011;3130;41.564;23.280;2022-11-27T08:33:27;20.57;;;14.40;;
6193;SDS011;3130;41.564;23.280;2022-11-27T08:35:55;23.53;;;16.47;;
6193;SDS011;3130;41.564;23.280;2022-11-27T08:38:22;21.90;;;14.97;;
6193;SDS011;3130;41.564;23.280;2022-11-27T08:40:52;22.33;;;14.83;;
6193;SDS011;3130;41.564;23.280;2022-11-27T08:43:22;25.00;;;18.00;;
6193;SDS011;3130;41.564;23.280;2022-11-27T08:45:50;25.93;;;19.07;;
6193;SDS011;3130;41.564;23.280;2022-11-27T08:48:17;27.00;;;18.10;;
6193;SDS011;3130;41.564;23.280;2022-11-27T08:50:46;23.10;;;17.60;;
6193;SDS011;3130;41.564;23.280;2022-11-27T08:53:14;30.03;;;20.40;;
6193;SDS011;3130;41.564;23.280;2022-11-27T08:55:41;31.87;;;19.23;;
6193;SDS011;3130;41.564;23.280;2022-11-27T08:58:08;33.20;;;21.03;;
6193;SDS011;3130;41.564;23.280;2022-11-27T09:00:36;28.27;;;21.77;;
6193;SDS011;3130;41.564;23.280;2022-11-27T09:03:04;32.17;;;20.47;;
6193;SDS011;3130;41.564;23.280;2022-11-27T09:05:32;29.77;;;20.97;;
6193;SDS011;3130;41.564;23.280;2022-11-27T09:08:01;32.13;;;20.07;;
6193;SDS011;3130;41.564;23.280;2022-11-27T09:10:29;34.20;;;21.93;;
6193;SDS011;3130;41.564;23.280;2022-11-27T09:12:56;31.97;;;20.07;;
6193;SDS011;3130;41.564;23.280;2022-11-27T09:15:24;26.43;;;17.40;;
6193;SDS011;3130;41.564;23.280;2022-11-27T09:17:52;26.70;;;17.70;;
6193;SDS011;3130;41.564;23.280;2022-11-27T09:20:20;24.80;;;18.50;;
6193;SDS011;3130;41.564;23.280;2022-11-27T09:22:47;29.17;;;17.40;;
6193;SDS011;3130;41.564;23.280;2022-11-27T09:25:15;19.23;;;14.90;;
6193;SDS011;3130;41.564;23.280;2022-11-27T09:27:43;23.53;;;15.73;;
6193;SDS011;3130;41.564;23.280;2022-11-27T09:30:10;23.10;;;15.43;;
6193;SDS011;3130;41.564;23.280;2022-11-27T09:32:38;19.27;;;12.53;;
6193;SDS011;3130;41.564;23.280;2022-11-27T09:35:05;18.67;;;12.80;;
6193;SDS011;3130;41.564;23.280;2022-11-27T09:37:32;22.97;;;17.30;;
6193;SDS011;3130;41.564;23.280;2022-11-27T09:39:59;18.67;;;13.70;;
6193;SDS011;3130;41.564;23.280;2022-11-27T09:42:32;22.07;;;14.47;;
6193;SDS011;3130;41.564;23.280;2022-11-27T09:45:04;19.27;;;13.13;;
6193;SDS011;3130;41.564;23.280;2022-11-27T09:47:37;20.50;;;15.33;;
6193;SDS011;3130;41.564;23.280;2022-11-27T09:50:10;33.90;;;24.67;;
6193;SDS011;3130;41.564;23.280;2022-11-27T09:52:43;28.83;;;19.33;;
6193;SDS011;3130;41.564;23.280;2022-11-27T09:55:15;20.53;;;15.37;;
6193;SDS011;3130;41.564;23.280;2022-11-27T09:57:52;20.70;;;14.17;;
6193;SDS011;3130;41.564;23.280;2022-11-27T10:00:23;21.50;;;15.17;;
6193;SDS011;3130;41.564;23.280;2022-11-27T10:02:51;18.87;;;11.80;;
6193;SDS011;3130;41.564;23.280;2022-11-27T10:05:19;20.67;;;13.17;;
6193;SDS011;3130;41.564;23.280;2022-11-27T10:07:55;35.33;;;25.40;;
6193;SDS011;3130;41.564;23.280;2022-11-27T10:10:43;22.57;;;16.27;;
6193;SDS011;3130;41.564;23.280;2022-11-27T10:13:27;19.27;;;12.87;;
6193;SDS011;3130;41.564;23.280;2022-11-27T10:16:05;20.87;;;11.93;;
6193;SDS011;3130;41.564;23.280;2022-11-27T10:18:41;19.47;;;13.63;;
6193;SDS011;3130;41.564;23.280;2022-11-27T10:21:14;21.07;;;13.77;;
6193;SDS011;3130;41.564;23.280;2022-11-27T10:23:48;19.37;;;13.17;;
6193;SDS011;3130;41.564;23.280;2022-11-27T10:26:23;19.07;;;11.90;;
6193;SDS011;3130;41.564;23.280;2022-11-27T10:28:58;22.17;;;13.03;;
6193;SDS011;3130;41.564;23.280;2022-11-27T10:31:32;27.87;;;19.37;;
6193;SDS011;3130;41.564;23.280;2022-11-27T10:34:03;23.17;;;15.20;;
6193;SDS011;3130;41.564;23.280;2022-11-27T10:36:47;20.03;;;14.77;;
6193;SDS011;3130;41.564;23.280;2022-11-27T10:39:19;28.40;;;14.27;;
6193;SDS011;3130;41.564;23.280;2022-11-27T10:41:52;24.97;;;18.03;;
6193;SDS011;3130;41.564;23.280;2022-11-27T10:44:28;16.67;;;13.57;;
6193;SDS011;3130;41.564;23.280;2022-11-27T10:47:00;19.20;;;13.37;;
6193;SDS011;3130;41.564;23.280;2022-11-27T10:49:30;20.27;;;13.30;;
6193;SDS011;3130;41.564;23.280;2022-11-27T10:51:58;19.87;;;14.20;;
6193;SDS011;3130;41.564;23.280;2022-11-27T10:54:27;22.20;;;12.83;;
6193;SDS011;3130;41.564;23.280;2022-11-27T10:57:01;20.57;;;13.63;;
6193;SDS011;3130;41.564;23.280;2022-11-27T10:59:42;19.93;;;12.20;;
6193;SDS011;3130;41.564;23.280;2022-11-27T11:02:27;20.20;;;13.07;;
6193;SDS011;3130;41.564;23.280;2022-11-27T11:04:56;19.73;;;13.27;;
6193;SDS011;3130;41.564;23.280;2022-11-27T11:07:24;17.90;;;12.40;;
6193;SDS011;3130;41.564;23.280;2022-11-27T11:09:52;25.03;;;17.57;;
6193;SDS011;3130;41.564;23.280;2022-11-27T11:12:21;21.67;;;14.63;;
6193;SDS011;3130;41.564;23.280;2022-11-27T11:14:51;24.60;;;14.50;;
6193;SDS011;3130;41.564;23.280;2022-11-27T11:17:21;19.40;;;12.73;;
6193;SDS011;3130;41.564;23.280;2022-11-27T11:19:52;20.07;;;12.13;;
6193;SDS011;3130;41.564;23.280;2022-11-27T11:22:20;15.90;;;12.43;;
6193;SDS011;3130;41.564;23.280;2022-11-27T11:24:48;17.80;;;12.93;;
6193;SDS011;3130;41.564;23.280;2022-11-27T11:27:17;19.77;;;13.20;;
6193;SDS011;3130;41.564;23.280;2022-11-27T11:29:47;16.20;;;12.30;;
6193;SDS011;3130;41.564;23.280;2022-11-27T11:32:21;17.50;;;12.57;;
6193;SDS011;3130;41.564;23.280;2022-11-27T11:34:52;15.87;;;13.27;;
6193;SDS011;3130;41.564;23.280;2022-11-27T11:37:24;23.40;;;14.87;;
6193;SDS011;3130;41.564;23.280;2022-11-27T11:39:57;18.03;;;13.33;;
6193;SDS011;3130;41.564;23.280;2022-11-27T11:42:26;21.77;;;14.73;;
6193;SDS011;3130;41.564;23.280;2022-11-27T11:45:00;41.30;;;28.90;;
6193;SDS011;3130;41.564;23.280;2022-11-27T11:47:30;156.63;;;111.07;;
6193;SDS011;3130;41.564;23.280;2022-11-27T11:49:57;50.90;;;40.33;;
6193;SDS011;3130;41.564;23.280;2022-11-27T11:52:31;28.40;;;15.93;;
6193;SDS011;3130;41.564;23.280;2022-11-27T11:55:09;23.17;;;14.53;;
6193;SDS011;3130;41.564;23.280;2022-11-27T11:57:58;19.13;;;13.70;;
6193;SDS011;3130;41.564;23.280;2022-11-27T12:00:44;19.33;;;11.63;;
6193;SDS011;3130;41.564;23.280;2022-11-27T12:03:24;17.67;;;12.33;;
6193;SDS011;3130;41.564;23.280;2022-11-27T12:06:06;15.10;;;10.77;;
6193;SDS011;3130;41.564;23.280;2022-11-27T12:08:52;11.97;;;9.93;;
6193;SDS011;3130;41.564;23.280;2022-11-27T12:11:38;13.83;;;9.83;;
6193;SDS011;3130;41.564;23.280;2022-11-27T12:14:16;14.67;;;9.93;;
6193;SDS011;3130;41.564;23.280;2022-11-27T12:16:56;13.97;;;12.37;;
6193;SDS011;3130;41.564;23.280;2022-11-27T12:19:37;13.07;;;10.37;;
6193;SDS011;3130;41.564;23.280;2022-11-27T12:22:18;16.30;;;10.20;;
6193;SDS011;3130;41.564;23.280;2022-11-27T12:25:02;14.10;;;10.93;;
6193;SDS011;3130;41.564;23.280;2022-11-27T12:27:47;15.53;;;10.60;;
6193;SDS011;3130;41.564;23.280;2022-11-27T12:30:23;20.43;;;12.33;;
6193;SDS011;3130;41.564;23.280;2022-11-27T12:36:16;44.73;;;27.90;;
6193;SDS011;3130;41.564;23.280;2022-11-27T12:39:01;37.43;;;27.23;;
6193;SDS011;3130;41.564;23.280;2022-11-27T12:41:43;15.40;;;12.00;;
6193;SDS011;3130;41.564;23.280;2022-11-27T12:44:21;19.93;;;14.50;;
6193;SDS011;3130;41.564;23.280;2022-11-27T12:46:55;15.23;;;10.20;;
6193;SDS011;3130;41.564;23.280;2022-11-27T12:49:27;14.87;;;11.47;;
6193;SDS011;3130;41.564;23.280;2022-11-27T12:52:05;18.87;;;10.67;;
6193;SDS011;3130;41.564;23.280;2022-11-27T12:54:41;14.67;;;10.53;;
6193;SDS011;3130;41.564;23.280;2022-11-27T12:57:15;20.37;;;13.53;;
6193;SDS011;3130;41.564;23.280;2022-11-27T12:59:47;15.10;;;10.93;;
6193;SDS011;3130;41.564;23.280;2022-11-27T13:02:28;18.77;;;14.83;;
6193;SDS011;3130;41.564;23.280;2022-11-27T13:05:01;16.00;;;11.77;;
6193;SDS011;3130;41.564;23.280;2022-11-27T13:07:35;34.53;;;18.50;;
6193;SDS011;3130;41.564;23.280;2022-11-27T13:10:17;20.63;;;14.60;;
6193;SDS011;3130;41.564;23.280;2022-11-27T13:12:49;21.37;;;15.10;;
6193;SDS011;3130;41.564;23.280;2022-11-27T13:15:30;20.23;;;13.60;;
6193;SDS011;3130;41.564;23.280;2022-11-27T13:18:05;17.83;;;12.63;;
6193;SDS011;3130;41.564;23.280;2022-11-27T13:20:39;21.50;;;14.57;;
6193;SDS011;3130;41.564;23.280;2022-11-27T13:23:10;16.60;;;12.57;;
6193;SDS011;3130;41.564;23.280;2022-11-27T13:25:39;18.90;;;12.63;;
6193;SDS011;3130;41.564;23.280;2022-11-27T13:28:13;19.87;;;12.33;;
6193;SDS011;3130;41.564;23.280;2022-11-27T13:30:49;20.33;;;12.53;;
6193;SDS011;3130;41.564;23.280;2022-11-27T13:33:22;21.17;;;13.50;;
6193;SDS011;3130;41.564;23.280;2022-11-27T13:35:58;19.13;;;13.30;;
6193;SDS011;3130;41.564;23.280;2022-11-27T13:38:31;24.37;;;16.97;;
6193;SDS011;3130;41.564;23.280;2022-11-27T13:41:00;20.07;;;14.60;;
6193;SDS011;3130;41.564;23.280;2022-11-27T13:43:34;20.47;;;15.83;;
6193;SDS011;3130;41.564;23.280;2022-11-27T13:46:08;16.67;;;12.63;;
6193;SDS011;3130;41.564;23.280;2022-11-27T13:48:41;31.10;;;20.00;;
6193;SDS011;3130;41.564;23.280;2022-11-27T13:51:21;29.80;;;21.93;;
6193;SDS011;3130;41.564;23.280;2022-11-27T13:53:52;22.70;;;18.03;;
6193;SDS011;3130;41.564;23.280;2022-11-27T13:56:27;28.67;;;17.93;;
6193;SDS011;3130;41.564;23.280;2022-11-27T13:58:55;16.63;;;13.30;;
6193;SDS011;3130;41.564;23.280;2022-11-27T14:01:23;26.00;;;16.27;;
6193;SDS011;3130;41.564;23.280;2022-11-27T14:03:51;33.70;;;18.57;;
6193;SDS011;3130;41.564;23.280;2022-11-27T14:06:21;22.60;;;15.87;;
6193;SDS011;3130;41.564;23.280;2022-11-27T14:08:53;32.53;;;18.00;;
6193;SDS011;3130;41.564;23.280;2022-11-27T14:11:33;32.23;;;18.37;;
6193;SDS011;3130;41.564;23.280;2022-11-27T14:14:10;25.17;;;18.63;;
6193;SDS011;3130;41.564;23.280;2022-11-27T14:16:49;26.67;;;16.00;;
6193;SDS011;3130;41.564;23.280;2022-11-27T14:19:28;23.10;;;15.40;;
6193;SDS011;3130;41.564;23.280;2022-11-27T14:21:59;25.60;;;17.83;;
6193;SDS011;3130;41.564;23.280;2022-11-27T14:24:34;27.77;;;18.90;;
6193;SDS011;3130;41.564;23.280;2022-11-27T14:27:13;26.70;;;19.37;;
6193;SDS011;3130;41.564;23.280;2022-11-27T14:29:43;32.30;;;21.27;;
6193;SDS011;3130;41.564;23.280;2022-11-27T14:32:11;29.63;;;19.27;;
6193;SDS011;3130;41.564;23.280;2022-11-27T14:34:40;26.30;;;19.13;;
6193;SDS011;3130;41.564;23.280;2022-11-27T14:37:18;33.83;;;23.40;;
6193;SDS011;3130;41.564;23.280;2022-11-27T14:39:48;30.27;;;22.03;;
6193;SDS011;3130;41.564;23.280;2022-11-27T14:42:18;37.40;;;24.27;;
6193;SDS011;3130;41.564;23.280;2022-11-27T14:44:46;39.37;;;25.23;;
6193;SDS011;3130;41.564;23.280;2022-11-27T14:47:16;39.40;;;26.17;;
6193;SDS011;3130;41.564;23.280;2022-11-27T14:49:51;42.27;;;28.20;;
6193;SDS011;3130;41.564;23.280;2022-11-27T14:52:19;43.57;;;31.10;;
6193;SDS011;3130;41.564;23.280;2022-11-27T14:54:46;47.13;;;31.10;;
6193;SDS011;3130;41.564;23.280;2022-11-27T14:57:17;49.17;;;32.47;;
6193;SDS011;3130;41.564;23.280;2022-11-27T14:59:58;54.53;;;35.30;;
6193;SDS011;3130;41.564;23.280;2022-11-27T15:02:28;49.03;;;33.03;;
6193;SDS011;3130;41.564;23.280;2022-11-27T15:05:00;54.63;;;33.57;;
6193;SDS011;3130;41.564;23.280;2022-11-27T15:07:29;39.37;;;27.10;;
6193;SDS011;3130;41.564;23.280;2022-11-27T15:10:00;35.03;;;24.67;;